createdAt,value
2022-08-21T00:04:39.858Z,24.10
2022-08-21T00:10:00.424Z,25.48
2022-08-21T00:15:04.597Z,26.30
2022-08-21T00:20:13.358Z,27.25
2022-08-21T00:25:16.868Z,27.70
2022-08-21T00:30:24.685Z,28.73
2022-08-21T00:35:31.937Z,27.88
2022-08-21T00:40:45.245Z,30.67
2022-08-21T00:45:47.878Z,28.83
2022-08-21T00:50:59.227Z,32.25
2022-08-21T00:56:04.382Z,30.25
2022-08-21T01:01:09.696Z,32.30
2022-08-21T01:06:12.715Z,30.67
2022-08-21T01:11:16.880Z,35.00
2022-08-21T01:16:22.566Z,37.28
2022-08-21T01:21:28.742Z,35.80
2022-08-21T01:26:35.719Z,35.20
2022-08-21T01:31:38.894Z,33.05
2022-08-21T01:36:41.595Z,33.53
2022-08-21T01:41:44.673Z,33.17
2022-08-21T01:46:47.360Z,33.67
2022-08-21T01:51:50.069Z,35.65
2022-08-21T01:56:54.625Z,35.83
2022-08-21T02:01:57.737Z,32.35
2022-08-21T02:07:01.468Z,35.28
2022-08-21T02:12:04.963Z,32.20
2022-08-21T02:17:09.241Z,33.38
2022-08-21T02:22:12.772Z,31.70
2022-08-21T02:27:15.407Z,33.92
2022-08-21T02:32:18.195Z,31.52
2022-08-21T02:37:20.883Z,30.13
2022-08-21T02:42:23.668Z,31.20
2022-08-21T02:47:26.338Z,29.40
2022-08-21T02:52:28.997Z,29.90
2022-08-21T02:57:33.637Z,28.55
2022-08-21T03:02:36.716Z,28.10
2022-08-21T03:07:40.480Z,26.48
2022-08-21T03:12:44.469Z,27.05
2022-08-21T03:17:48.695Z,28.23
2022-08-21T03:22:53.217Z,26.55
2022-08-21T03:27:58.813Z,25.88
2022-08-21T03:33:02.520Z,24.33
2022-08-21T03:38:05.754Z,25.90
2022-08-21T03:43:10.678Z,26.30
2022-08-21T03:48:13.717Z,25.02
2022-08-21T03:53:17.973Z,25.20
2022-08-21T03:58:24.461Z,23.90
2022-08-21T04:03:28.434Z,22.55
2022-08-21T04:08:31.373Z,22.58
2022-08-21T04:13:35.122Z,21.23
2022-08-21T04:18:46.984Z,22.25
2022-08-21T04:23:49.687Z,20.92
2022-08-21T04:28:53.101Z,21.02
2022-08-21T04:33:56.119Z,21.80
2022-08-21T04:38:59.001Z,22.27
2022-08-21T04:44:02.562Z,20.52
2022-08-21T04:49:05.171Z,20.98
2022-08-21T04:54:15.736Z,22.13
2022-08-21T04:59:37.346Z,19.58
2022-08-21T05:04:49.833Z,22.00
2022-08-21T05:09:53.363Z,21.00
2022-08-21T05:14:56.473Z,21.15
2022-08-21T05:19:59.136Z,22.77
2022-08-21T05:25:01.892Z,21.15
2022-08-21T05:30:08.750Z,24.95
2022-08-21T05:35:12.372Z,27.30
2022-08-21T05:40:21.465Z,24.92
2022-08-21T05:45:43.009Z,25.27
2022-08-21T05:50:48.593Z,23.92
2022-08-21T05:55:53.161Z,24.77
2022-08-21T06:00:56.031Z,23.13
2022-08-21T06:05:59.089Z,24.42
2022-08-21T06:11:02.755Z,23.90
2022-08-21T06:16:15.623Z,23.85
2022-08-21T06:21:19.286Z,21.73
2022-08-21T06:26:22.617Z,23.58
2022-08-21T06:31:27.610Z,23.05
2022-08-21T06:36:30.385Z,22.95
2022-08-21T06:41:39.102Z,21.98
2022-08-21T06:46:41.928Z,22.33
2022-08-21T06:51:47.376Z,20.92
2022-08-21T06:56:50.160Z,19.92
2022-08-21T07:01:52.876Z,22.23
2022-08-21T07:06:55.891Z,21.52
2022-08-21T07:11:58.954Z,21.67
2022-08-21T07:17:02.369Z,21.27
2022-08-21T07:22:05.492Z,19.15
2022-08-21T07:27:10.049Z,22.08
2022-08-21T07:32:13.355Z,20.15
2022-08-21T07:37:16.129Z,19.08
2022-08-21T07:42:20.040Z,18.95
2022-08-21T07:47:29.509Z,20.15
2022-08-21T07:52:46.058Z,21.63
2022-08-21T07:57:49.525Z,20.13
2022-08-21T08:02:54.218Z,18.00
2022-08-21T08:07:57.584Z,17.77
2022-08-21T08:13:01.485Z,18.92
2022-08-21T08:18:04.713Z,19.02
2022-08-21T08:23:07.448Z,16.77
2022-08-21T08:28:17.192Z,18.23
2022-08-21T08:33:21.419Z,18.93
2022-08-21T08:38:26.263Z,19.20
2022-08-21T08:43:34.591Z,18.92
2022-08-21T08:48:49.372Z,19.45
2022-08-21T08:54:01.131Z,17.42
2022-08-21T08:59:18.368Z,18.35
2022-08-21T09:04:26.232Z,18.30
2022-08-21T09:09:40.320Z,19.15
2022-08-21T09:15:04.482Z,20.50
2022-08-21T09:20:17.608Z,21.15
2022-08-21T09:25:27.579Z,19.08
2022-08-21T09:30:33.630Z,16.77
2022-08-21T09:35:38.345Z,15.90
2022-08-21T09:40:45.270Z,14.38
2022-08-21T09:45:51.283Z,13.05
2022-08-21T09:50:55.193Z,13.07
2022-08-21T09:56:21.477Z,12.23
2022-08-21T10:01:27.434Z,13.60
2022-08-21T10:06:30.894Z,12.98
2022-08-21T10:11:34.738Z,12.35
2022-08-21T10:16:49.584Z,13.45
2022-08-21T10:22:27.357Z,11.40
2022-08-21T10:28:13.400Z,10.73
2022-08-21T10:33:34.849Z,9.52
2022-08-21T10:39:35.843Z,9.02
2022-08-21T10:45:00.133Z,7.50
2022-08-21T10:50:09.669Z,6.00
2022-08-21T10:55:38.678Z,6.05
2022-08-21T11:00:49.515Z,6.10
2022-08-21T11:06:01.179Z,6.35
2022-08-21T11:11:21.640Z,6.93
2022-08-21T11:16:25.144Z,5.72
2022-08-21T11:21:41.778Z,3.70
2022-08-21T11:26:59.620Z,4.80
2022-08-21T11:32:20.776Z,3.58
2022-08-21T11:42:45.285Z,2.83
2022-08-21T11:48:03.265Z,2.92
2022-08-21T11:53:22.548Z,2.65
2022-08-21T11:58:44.271Z,3.10
2022-08-21T12:04:30.175Z,4.40
2022-08-21T12:09:37.796Z,4.32
2022-08-21T12:14:52.169Z,5.60
2022-08-21T12:20:00.281Z,6.38
2022-08-21T12:25:11.194Z,8.40
2022-08-21T12:30:39.015Z,8.45
2022-08-21T12:35:44.659Z,8.32
2022-08-21T12:40:50.039Z,4.75
2022-08-21T12:45:53.511Z,3.03
2022-08-21T12:51:01.702Z,3.28
2022-08-21T12:56:10.101Z,4.47
2022-08-21T13:01:40.919Z,3.20
2022-08-21T13:06:52.455Z,3.22
2022-08-21T13:11:56.562Z,2.92
2022-08-21T13:17:01.034Z,3.33
2022-08-21T13:22:15.932Z,3.92
2022-08-21T13:27:31.273Z,3.28
2022-08-21T13:32:38.908Z,3.53
2022-08-21T13:37:44.432Z,4.25
2022-08-21T13:42:49.414Z,4.80
2022-08-21T13:47:54.068Z,4.18
2022-08-21T13:53:06.982Z,4.25
2022-08-21T13:58:11.209Z,4.18
2022-08-21T14:03:29.729Z,4.30
2022-08-21T14:08:35.761Z,3.30
2022-08-21T14:13:46.374Z,3.53
2022-08-21T14:18:53.509Z,2.95
2022-08-21T14:24:08.577Z,3.35
2022-08-21T14:29:13.751Z,3.42
2022-08-21T14:34:19.589Z,3.88
2022-08-21T14:39:23.262Z,4.18
2022-08-21T14:44:26.000Z,3.92
2022-08-21T14:49:29.961Z,3.90
2022-08-21T14:54:33.116Z,5.82
2022-08-21T14:59:37.112Z,5.75
2022-08-21T15:04:39.960Z,5.55
2022-08-21T15:09:42.654Z,5.82
2022-08-21T15:14:45.376Z,4.82
2022-08-21T15:19:48.097Z,5.55
2022-08-21T15:24:50.709Z,5.30
2022-08-21T15:29:55.405Z,5.10
2022-08-21T15:34:59.109Z,4.03
2022-08-21T15:40:01.913Z,3.83
2022-08-21T15:45:06.816Z,3.85
2022-08-21T15:50:10.813Z,2.85
2022-08-21T15:55:14.430Z,3.20
2022-08-21T16:00:22.758Z,3.33
2022-08-21T16:05:25.634Z,2.72
2022-08-21T16:10:30.015Z,2.50
2022-08-21T16:15:33.596Z,2.30
2022-08-21T16:20:36.316Z,2.40
2022-08-21T16:25:40.737Z,2.17
2022-08-21T16:30:47.362Z,2.00
2022-08-21T16:35:50.020Z,2.38
2022-08-21T16:40:52.668Z,2.20
2022-08-21T16:45:56.868Z,1.70
2022-08-21T16:50:59.551Z,2.03
2022-08-21T16:56:02.336Z,2.08
2022-08-21T17:01:08.306Z,2.35
2022-08-21T17:06:11.858Z,2.08
2022-08-21T17:11:36.768Z,2.25
2022-08-21T17:16:44.509Z,2.00
2022-08-21T17:21:47.597Z,5.35
2022-08-21T17:26:52.777Z,2.53
2022-08-21T17:31:56.745Z,3.00
2022-08-21T17:37:00.541Z,2.13
2022-08-21T17:42:09.893Z,2.13
2022-08-21T17:47:13.499Z,2.40
2022-08-21T17:52:16.465Z,2.00
2022-08-21T17:57:22.956Z,2.25
2022-08-21T18:02:25.882Z,2.15
2022-08-21T18:07:32.558Z,2.30
2022-08-21T18:12:36.329Z,2.50
2022-08-21T18:17:42.052Z,2.17
2022-08-21T18:22:45.598Z,2.10
2022-08-21T18:27:48.863Z,2.45
2022-08-21T18:32:54.498Z,2.38
2022-08-21T18:37:57.217Z,2.58
2022-08-21T18:43:04.138Z,2.47
2022-08-21T18:48:12.314Z,2.25
2022-08-21T18:53:24.011Z,2.65
2022-08-21T18:58:30.802Z,3.63
2022-08-21T19:03:33.431Z,2.70
2022-08-21T19:08:36.589Z,2.38
2022-08-21T19:13:40.870Z,2.75
2022-08-21T19:18:44.140Z,2.55
2022-08-21T19:23:52.579Z,3.25
2022-08-21T19:29:16.486Z,3.33
2022-08-21T19:34:24.101Z,3.47
2022-08-21T19:39:26.798Z,2.72
2022-08-21T19:44:31.804Z,2.53
2022-08-21T19:49:36.603Z,2.10
2022-08-21T19:54:39.581Z,2.00
2022-08-21T19:59:43.684Z,2.50
2022-08-21T20:04:53.985Z,2.60
2022-08-21T20:10:10.622Z,2.00
2022-08-21T20:15:16.334Z,2.22
2022-08-21T20:20:19.608Z,2.05
2022-08-21T20:25:22.995Z,2.50
2022-08-21T20:30:25.764Z,2.00
2022-08-21T20:35:29.105Z,2.20
2022-08-21T20:45:55.796Z,2.38
2022-08-21T20:51:25.352Z,2.05
2022-08-21T20:56:37.216Z,3.03
2022-08-21T21:01:41.742Z,2.40
2022-08-21T21:06:44.749Z,2.10
2022-08-21T21:11:57.609Z,2.00
2022-08-21T21:17:05.162Z,1.90
2022-08-21T21:22:10.558Z,2.35
2022-08-21T21:27:34.671Z,2.28
2022-08-21T21:32:39.066Z,1.70
2022-08-21T21:37:55.671Z,2.33
2022-08-21T21:43:27.699Z,1.83
2022-08-21T21:48:45.493Z,2.30
2022-08-21T21:53:54.518Z,2.10
2022-08-21T21:59:29.900Z,2.47
2022-08-21T22:04:38.222Z,2.15
2022-08-21T22:10:19.688Z,2.65
2022-08-21T22:20:46.545Z,2.35
2022-08-21T22:25:54.241Z,2.40
2022-08-21T22:31:18.213Z,2.30
2022-08-21T22:36:21.934Z,3.00
2022-08-21T22:41:28.705Z,3.33
2022-08-21T22:46:31.275Z,3.53
2022-08-21T22:51:44.489Z,3.65
2022-08-21T22:56:55.261Z,3.45
2022-08-21T23:02:05.872Z,3.10
2022-08-21T23:07:09.725Z,3.60
2022-08-21T23:12:33.158Z,2.95
2022-08-21T23:17:49.967Z,2.83
2022-08-21T23:23:02.677Z,2.55
2022-08-21T23:28:41.703Z,3.10
2022-08-21T23:34:20.169Z,2.90
2022-08-21T23:39:41.289Z,2.95
2022-08-21T23:45:13.760Z,2.72
2022-08-21T23:50:44.720Z,3.22
2022-08-21T23:56:02.424Z,2.55
